Time;durP1;ratioP1;P1;durP2;ratioP2;P2;SDS_P1;SDS_P2;PMS_P1;PMS_P2;Temp;Humidity;BMP_temperature;BMP_pressure;BME280_temperature;BME280_humidity;BME280_pressure;Samples;Min_cycle;Max_cycle;Signal;HPM_P1;HPM_P2
2023/04/04 00:00:25;;;;;;;3.92;2.10;;;2.10;52.20;;;;;;5095501;28;20070;-77
2023/04/04 00:02:50;;;;;;;5.25;2.40;;;2.10;52.40;;;;;;5094688;28;20073;-76
2023/04/04 00:05:16;;;;;;;3.95;2.00;;;2.10;52.40;;;;;;5094950;28;20085;-73
2023/04/04 00:07:46;;;;;;;3.47;2.10;;;2.10;52.20;;;;;;5094758;28;20468;-73
2023/04/04 00:10:11;;;;;;;3.78;2.20;;;2.10;51.90;;;;;;5095161;28;20031;-74
2023/04/04 00:12:38;;;;;;;7.13;2.47;;;2.10;52.00;;;;;;5094914;28;20020;-74
2023/04/04 00:15:04;;;;;;;3.70;2.20;;;2.00;51.40;;;;;;5094626;28;20075;-73
2023/04/04 00:17:29;;;;;;;4.88;2.38;;;2.00;51.50;;;;;;5094727;28;20480;-72
2023/04/04 00:19:56;;;;;;;3.80;2.10;;;2.00;51.90;;;;;;5094136;28;20059;-72
2023/04/04 00:22:22;;;;;;;5.45;2.45;;;2.00;51.90;;;;;;5094592;28;20025;-73
2023/04/04 00:24:48;;;;;;;5.18;2.50;;;2.00;52.00;;;;;;5093493;28;20035;-73
2023/04/04 00:27:14;;;;;;;3.70;2.28;;;2.00;51.90;;;;;;5094581;28;20055;-73
2023/04/04 00:29:40;;;;;;;4.22;2.22;;;2.00;51.80;;;;;;5094592;28;20052;-73
2023/04/04 00:32:06;;;;;;;5.68;2.47;;;2.00;51.90;;;;;;5094464;28;20032;-73
2023/04/04 00:34:31;;;;;;;8.02;2.67;;;1.90;51.80;;;;;;5092675;28;20024;-74
2023/04/04 00:36:57;;;;;;;5.63;2.55;;;1.90;51.90;;;;;;5094516;28;20024;-73
2023/04/04 00:39:25;;;;;;;9.32;2.63;;;1.90;51.60;;;;;;5094350;28;20055;-73
2023/04/04 00:41:51;;;;;;;4.97;2.40;;;1.80;51.70;;;;;;5093143;28;20024;-73
2023/04/04 00:44:17;;;;;;;4.57;2.25;;;1.80;51.60;;;;;;5094028;28;20047;-73
2023/04/04 00:46:43;;;;;;;3.72;2.45;;;1.70;51.30;;;;;;5094128;28;20024;-73
2023/04/04 00:49:09;;;;;;;4.90;2.67;;;1.80;51.20;;;;;;5094205;28;20506;-73
2023/04/04 00:51:34;;;;;;;7.32;3.08;;;1.70;51.00;;;;;;5093484;28;20565;-73
2023/04/04 00:54:01;;;;;;;6.07;2.38;;;1.70;50.50;;;;;;5093869;28;20020;-74
2023/04/04 00:56:27;;;;;;;5.45;2.55;;;1.70;50.20;;;;;;5094943;28;20137;-73
2023/04/04 00:58:54;;;;;;;4.43;2.10;;;1.60;49.90;;;;;;5088259;28;20019;-73
2023/04/04 01:01:20;;;;;;;5.05;2.40;;;1.50;50.10;;;;;;5095234;28;20024;-75
2023/04/04 01:03:45;;;;;;;3.72;2.20;;;1.50;50.20;;;;;;5094853;28;20070;-75
2023/04/04 01:06:12;;;;;;;3.35;2.28;;;1.50;50.00;;;;;;5094133;28;20032;-73
2023/04/04 01:08:39;;;;;;;4.78;2.55;;;1.50;49.90;;;;;;5095028;28;20476;-73
2023/04/04 01:11:05;;;;;;;3.90;1.90;;;1.50;49.80;;;;;;5094218;28;20032;-73
2023/04/04 01:13:32;;;;;;;5.13;2.42;;;1.50;49.70;;;;;;5094655;28;20055;-73
2023/04/04 01:15:58;;;;;;;4.90;2.35;;;1.40;49.20;;;;;;5094562;28;20124;-74
2023/04/04 01:18:25;;;;;;;4.97;2.40;;;1.50;49.90;;;;;;5094090;28;20583;-74
2023/04/04 01:20:59;;;;;;;5.05;2.40;;;1.40;49.10;;;;;;5093878;28;20036;-74
2023/04/04 01:23:34;;;;;;;4.40;2.45;;;1.40;49.30;;;;;;5092468;28;20020;-74
2023/04/04 01:26:03;;;;;;;3.70;2.30;;;1.40;49.30;;;;;;5093423;28;20035;-75
2023/04/04 01:28:28;;;;;;;4.20;2.08;;;1.40;49.30;;;;;;5094359;28;20039;-76
2023/04/04 01:30:56;;;;;;;5.53;2.28;;;1.40;49.40;;;;;;5094295;28;20036;-77
2023/04/04 01:33:39;;;;;;;5.95;2.83;;;1.40;49.20;;;;;;5094033;28;20028;-77
2023/04/04 01:36:22;;;;;;;4.95;2.70;;;1.40;49.40;;;;;;5094249;28;20031;-74
2023/04/04 01:39:03;;;;;;;5.40;2.72;;;1.30;49.60;;;;;;5093837;28;20093;-75
2023/04/04 01:41:32;;;;;;;6.13;2.78;;;1.20;49.90;;;;;;5093883;28;20035;-76
2023/04/04 01:43:58;;;;;;;6.70;2.40;;;1.20;50.20;;;;;;5092334;28;20453;-77
2023/04/04 01:46:25;;;;;;;5.25;2.40;;;1.30;50.40;;;;;;5093677;28;20024;-77
2023/04/04 01:48:50;;;;;;;5.43;2.80;;;1.10;50.40;;;;;;5092686;28;20372;-76
2023/04/04 01:51:18;;;;;;;8.55;3.10;;;1.10;50.60;;;;;;5094033;28;20130;-77
2023/04/04 01:53:43;;;;;;;4.40;2.80;;;1.00;51.30;;;;;;5093467;28;20050;-78
2023/04/04 01:56:09;;;;;;;5.15;2.47;;;1.00;51.20;;;;;;5093580;28;20452;-77
2023/04/04 01:58:35;;;;;;;3.97;2.47;;;1.00;51.30;;;;;;5087953;28;20024;-78
2023/04/04 02:01:00;;;;;;;4.53;2.50;;;1.00;51.50;;;;;;5093736;28;20024;-78
2023/04/04 02:03:26;;;;;;;6.90;2.65;;;1.00;51.80;;;;;;5092341;28;20381;-77
2023/04/04 02:05:52;;;;;;;8.07;2.97;;;0.90;51.70;;;;;;5093573;28;20039;-77
2023/04/04 02:08:19;;;;;;;6.60;2.58;;;1.00;51.90;;;;;;5093039;28;20048;-76
2023/04/04 02:10:44;;;;;;;7.53;2.95;;;0.90;52.00;;;;;;5093272;28;20148;-76
2023/04/04 02:13:10;;;;;;;5.97;2.70;;;0.90;52.30;;;;;;5092846;28;20068;-74
2023/04/04 02:15:35;;;;;;;5.40;2.30;;;0.90;52.40;;;;;;5093065;28;20016;-74
2023/04/04 02:18:01;;;;;;;7.93;2.28;;;0.90;52.40;;;;;;5093102;28;20028;-74
2023/04/04 02:20:27;;;;;;;5.88;2.78;;;0.90;52.40;;;;;;5091950;28;20544;-73
2023/04/04 02:22:53;;;;;;;9.85;2.85;;;0.90;53.20;;;;;;5092898;28;20032;-73
2023/04/04 02:25:21;;;;;;;5.20;2.28;;;0.90;52.40;;;;;;5093065;28;20069;-74
2023/04/04 02:27:46;;;;;;;7.75;3.15;;;0.90;53.30;;;;;;5092800;28;20115;-76
2023/04/04 02:30:13;;;;;;;5.57;2.78;;;0.80;52.50;;;;;;5092669;28;20127;-77
2023/04/04 02:32:38;;;;;;;4.38;2.60;;;0.80;52.60;;;;;;5093162;28;20107;-78
2023/04/04 02:35:04;;;;;;;4.32;2.70;;;0.80;52.80;;;;;;5091878;28;20075;-75
2023/04/04 02:37:30;;;;;;;4.55;2.75;;;0.80;52.80;;;;;;5091565;28;20418;-78
2023/04/04 02:39:55;;;;;;;6.97;2.88;;;0.80;52.90;;;;;;5093165;28;20052;-78
2023/04/04 02:42:21;;;;;;;5.95;2.53;;;0.80;52.70;;;;;;5092869;28;20047;-74
2023/04/04 02:44:47;;;;;;;5.70;2.53;;;0.70;53.00;;;;;;5092881;28;20381;-76
2023/04/04 02:47:12;;;;;;;6.32;2.58;;;0.70;53.50;;;;;;5092277;28;20388;-77
2023/04/04 02:49:38;;;;;;;4.53;2.58;;;0.70;53.10;;;;;;5093154;28;20419;-77
2023/04/04 02:52:04;;;;;;;4.55;2.03;;;0.70;53.10;;;;;;5092790;28;20032;-78
2023/04/04 02:54:29;;;;;;;6.00;2.53;;;0.70;53.30;;;;;;5092995;28;20477;-80
2023/04/04 02:56:55;;;;;;;6.47;2.75;;;0.70;53.30;;;;;;5098734;28;20031;-79
2023/04/04 02:59:21;;;;;;;5.05;2.85;;;0.70;53.30;;;;;;5104051;28;20031;-75
2023/04/04 03:01:46;;;;;;;5.32;2.50;;;0.70;53.30;;;;;;5097814;28;20028;-75
2023/04/04 03:04:12;;;;;;;4.88;2.45;;;0.70;53.30;;;;;;5095634;28;20030;-76
2023/04/04 03:06:40;;;;;;;5.57;2.35;;;0.70;53.60;;;;;;5094107;28;20030;-78
2023/04/04 03:09:06;;;;;;;5.38;2.80;;;0.70;53.60;;;;;;5091565;28;20384;-75
2023/04/04 03:11:31;;;;;;;5.22;2.35;;;0.70;53.40;;;;;;5092676;28;20475;-76
2023/04/04 03:13:57;;;;;;;6.97;2.90;;;0.70;53.40;;;;;;5092733;28;20024;-78
2023/04/04 03:16:23;;;;;;;4.65;2.53;;;0.70;53.50;;;;;;5092615;28;20513;-75
2023/04/04 03:18:48;;;;;;;6.05;2.53;;;0.70;53.40;;;;;;5092658;28;20028;-74
2023/04/04 03:21:14;;;;;;;5.20;2.60;;;0.70;53.40;;;;;;5093020;28;20016;-75
2023/04/04 03:23:41;;;;;;;5.45;2.47;;;0.70;53.50;;;;;;5092348;28;20461;-75
2023/04/04 03:26:07;;;;;;;6.18;2.80;;;0.60;53.70;;;;;;5091273;28;20024;-74
2023/04/04 03:28:33;;;;;;;4.80;2.70;;;0.60;53.60;;;;;;5095038;28;20545;-75
2023/04/04 03:31:03;;;;;;;5.65;2.47;;;0.60;53.70;;;;;;5096286;28;20492;-75
2023/04/04 03:33:29;;;;;;;9.02;2.60;;;0.60;53.70;;;;;;5096274;28;20017;-75
2023/04/04 03:35:55;;;;;;;6.50;2.97;;;0.60;53.50;;;;;;5096225;28;20354;-75
2023/04/04 03:38:20;;;;;;;5.50;3.00;;;0.60;53.60;;;;;;5096616;28;20103;-75
2023/04/04 03:40:46;;;;;;;7.55;2.80;;;0.60;53.90;;;;;;5095947;28;20051;-75
2023/04/04 03:43:11;;;;;;;5.03;2.42;;;0.60;53.70;;;;;;5096050;28;20099;-75
2023/04/04 03:45:37;;;;;;;6.35;2.53;;;0.60;53.60;;;;;;5095315;28;20107;-74
2023/04/04 03:48:03;;;;;;;5.60;2.47;;;0.60;53.70;;;;;;5095891;28;20028;-74
2023/04/04 03:50:28;;;;;;;4.57;2.50;;;0.60;53.80;;;;;;5095849;28;20357;-74
2023/04/04 03:52:54;;;;;;;6.40;2.63;;;0.60;53.90;;;;;;5095724;28;20027;-74
2023/04/04 03:55:19;;;;;;;4.63;2.65;;;0.60;53.90;;;;;;5094561;28;20020;-74
2023/04/04 03:57:46;;;;;;;8.60;3.03;;;0.60;53.50;;;;;;5095769;28;20480;-76
2023/04/04 04:00:12;;;;;;;8.60;2.65;;;0.60;53.60;;;;;;5093838;28;20024;-74
2023/04/04 04:02:37;;;;;;;6.20;2.55;;;0.60;53.60;;;;;;5091285;28;20021;-74
2023/04/04 04:05:03;;;;;;;8.02;2.70;;;0.60;53.60;;;;;;5095724;28;20503;-75
2023/04/04 04:07:28;;;;;;;6.75;2.53;;;0.50;53.60;;;;;;5095622;28;20020;-74
2023/04/04 04:09:54;;;;;;;6.07;2.72;;;0.50;53.70;;;;;;5094243;28;20036;-74
2023/04/04 04:12:19;;;;;;;5.55;2.63;;;0.60;53.60;;;;;;5094659;28;20028;-74
2023/04/04 04:14:45;;;;;;;11.40;2.90;;;0.50;53.60;;;;;;5094875;28;20024;-74
2023/04/04 04:17:10;;;;;;;5.00;2.50;;;0.50;53.70;;;;;;5095388;28;20024;-74
2023/04/04 04:19:36;;;;;;;9.30;2.58;;;0.50;53.50;;;;;;5094912;28;20024;-74
2023/04/04 04:22:01;;;;;;;5.63;2.38;;;0.50;53.70;;;;;;5095480;28;20032;-74
2023/04/04 04:24:27;;;;;;;7.07;2.85;;;0.40;53.60;;;;;;5094706;28;20022;-75
2023/04/04 04:26:53;;;;;;;5.78;2.92;;;0.50;53.80;;;;;;5095157;28;20032;-74
2023/04/04 04:29:18;;;;;;;6.75;3.22;;;0.40;53.90;;;;;;5094151;28;20375;-78
2023/04/04 04:31:44;;;;;;;4.07;2.35;;;0.40;53.90;;;;;;5095128;28;20038;-75
2023/04/04 04:34:10;;;;;;;6.68;2.95;;;0.40;54.00;;;;;;5094649;28;20020;-74
2023/04/04 04:36:36;;;;;;;4.57;2.60;;;0.40;54.10;;;;;;5094688;28;20505;-74
2023/04/04 04:39:02;;;;;;;4.45;2.80;;;0.30;54.30;;;;;;5093438;28;20088;-74
2023/04/04 04:41:31;;;;;;;4.47;2.60;;;0.30;54.40;;;;;;5094660;28;20032;-74
2023/04/04 04:43:56;;;;;;;6.85;2.50;;;0.30;54.40;;;;;;5094853;28;20106;-74
2023/04/04 04:46:22;;;;;;;5.22;2.50;;;0.30;54.40;;;;;;5095179;28;20056;-74
2023/04/04 04:48:47;;;;;;;5.20;2.67;;;0.30;54.40;;;;;;5094673;28;20032;-75
2023/04/04 04:51:14;;;;;;;7.75;3.08;;;0.30;54.30;;;;;;5093943;28;20039;-74
2023/04/04 04:53:40;;;;;;;8.85;3.53;;;0.30;54.20;;;;;;5093338;28;20118;-75
2023/04/04 04:56:06;;;;;;;7.95;3.20;;;0.30;54.10;;;;;;5094651;28;20388;-74
2023/04/04 04:58:31;;;;;;;7.72;2.85;;;0.30;54.00;;;;;;5095022;28;20334;-75
2023/04/04 05:00:57;;;;;;;7.25;2.72;;;0.30;54.10;;;;;;5094765;28;20026;-74
2023/04/04 05:03:23;;;;;;;6.88;2.88;;;0.30;54.10;;;;;;5089162;28;20038;-75
2023/04/04 05:05:49;;;;;;;8.15;3.50;;;0.30;54.00;;;;;;5094320;28;20024;-74
2023/04/04 05:08:14;;;;;;;8.52;3.15;;;0.30;54.10;;;;;;5094552;28;20326;-74
2023/04/04 05:10:41;;;;;;;7.28;3.30;;;0.30;53.70;;;;;;5093761;28;20047;-74
2023/04/04 05:13:06;;;;;;;7.38;2.80;;;0.40;53.80;;;;;;5094155;28;20020;-74
2023/04/04 05:15:32;;;;;;;6.28;3.38;;;0.40;53.90;;;;;;5094124;28;20059;-74
2023/04/04 05:17:58;;;;;;;5.30;2.83;;;0.40;53.90;;;;;;5092811;28;20111;-74
2023/04/04 05:20:23;;;;;;;5.13;2.70;;;0.30;54.20;;;;;;5093202;28;20024;-75
2023/04/04 05:22:50;;;;;;;6.78;2.65;;;0.40;54.20;;;;;;5093901;28;20471;-76
2023/04/04 05:25:15;;;;;;;9.95;4.45;;;0.40;54.30;;;;;;5093678;28;20479;-76
2023/04/04 05:27:41;;;;;;;8.30;3.38;;;0.40;54.20;;;;;;5093963;28;20091;-75
2023/04/04 05:30:08;;;;;;;5.30;2.65;;;0.40;54.20;;;;;;5093220;28;20086;-76
2023/04/04 05:32:34;;;;;;;6.40;3.08;;;0.40;54.10;;;;;;5093629;28;20050;-75
2023/04/04 05:35:00;;;;;;;37.22;20.20;;;0.40;54.20;;;;;;5093478;28;20012;-74
2023/04/04 05:37:26;;;;;;;10.95;4.95;;;0.50;54.20;;;;;;5093554;28;20383;-74
2023/04/04 05:39:52;;;;;;;4.90;2.70;;;0.60;54.20;;;;;;5093400;28;20036;-73
2023/04/04 05:42:17;;;;;;;5.97;2.70;;;0.70;53.90;;;;;;5093229;28;20024;-74
2023/04/04 05:44:43;;;;;;;6.38;2.85;;;0.80;53.40;;;;;;5091029;28;20054;-74
2023/04/04 05:47:09;;;;;;;7.18;2.92;;;0.80;52.80;;;;;;5093487;28;20025;-74
2023/04/04 05:49:34;;;;;;;6.63;3.08;;;0.90;52.60;;;;;;5092731;28;20556;-74
2023/04/04 05:52:00;;;;;;;5.65;3.20;;;1.00;52.40;;;;;;5092504;28;20028;-74
2023/04/04 05:54:25;;;;;;;4.82;2.45;;;1.00;52.10;;;;;;5092568;28;20016;-74
2023/04/04 05:56:51;;;;;;;6.50;2.75;;;1.10;52.20;;;;;;5093239;28;20469;-74
2023/04/04 05:59:17;;;;;;;4.32;2.40;;;1.10;52.10;;;;;;5093218;28;20107;-75
2023/04/04 06:01:43;;;;;;;6.85;2.72;;;1.20;52.00;;;;;;5092974;28;20024;-78
2023/04/04 06:04:09;;;;;;;6.82;2.75;;;1.30;51.80;;;;;;5087853;28;20032;-78
2023/04/04 06:06:34;;;;;;;7.50;2.70;;;1.30;51.30;;;;;;5093386;28;20020;-77
2023/04/04 06:09:00;;;;;;;16.65;3.28;;;1.30;51.40;;;;;;5092467;28;20028;-75
2023/04/04 06:11:26;;;;;;;13.60;6.43;;;1.50;51.40;;;;;;5092199;28;20043;-75
2023/04/04 06:13:53;;;;;;;46.40;23.33;;;1.50;51.20;;;;;;5093164;28;20043;-78
2023/04/04 06:16:20;;;;;;;7.55;4.28;;;1.60;50.90;;;;;;5092987;28;20028;-78
2023/04/04 06:18:46;;;;;;;5.75;2.90;;;1.70;50.70;;;;;;5092778;28;20020;-76
2023/04/04 06:21:12;;;;;;;6.38;2.95;;;1.70;50.60;;;;;;5092622;28;20114;-77
2023/04/04 06:23:38;;;;;;;9.20;3.15;;;1.80;50.70;;;;;;5092599;28;20028;-75
2023/04/04 06:26:04;;;;;;;4.93;2.88;;;1.80;50.80;;;;;;5091397;28;20023;-76
2023/04/04 06:28:30;;;;;;;7.68;2.75;;;1.90;50.50;;;;;;5093116;28;20036;-75
2023/04/04 06:30:55;;;;;;;6.25;3.13;;;2.00;50.40;;;;;;5092891;28;20083;-74
2023/04/04 06:33:21;;;;;;;5.20;2.60;;;2.10;49.90;;;;;;5092759;28;20507;-77
2023/04/04 06:35:46;;;;;;;7.05;3.03;;;2.20;49.50;;;;;;5093178;28;20070;-76
2023/04/04 06:38:12;;;;;;;4.50;2.63;;;2.20;49.30;;;;;;5092933;28;20032;-77
2023/04/04 06:40:37;;;;;;;6.63;3.42;;;2.30;49.60;;;;;;5092539;28;20062;-75
2023/04/04 06:43:03;;;;;;;7.28;3.40;;;2.30;49.60;;;;;;5092302;28;20078;-75
2023/04/04 06:45:32;;;;;;;7.70;3.38;;;2.40;49.40;;;;;;5092469;28;20064;-74
2023/04/04 06:47:58;;;;;;;5.45;2.85;;;2.40;49.20;;;;;;5092870;28;20012;-74
2023/04/04 06:50:24;;;;;;;7.40;2.83;;;2.30;48.90;;;;;;5092647;28;20121;-74
2023/04/04 06:52:50;;;;;;;7.82;3.45;;;2.40;49.00;;;;;;5092785;28;20020;-74
2023/04/04 06:55:16;;;;;;;7.25;3.22;;;2.40;49.10;;;;;;5092536;28;20361;-74
2023/04/04 06:57:42;;;;;;;6.57;2.53;;;2.50;48.90;;;;;;5092749;28;20480;-75
2023/04/04 07:00:09;;;;;;;8.07;3.65;;;2.60;48.80;;;;;;5091976;28;20021;-74
2023/04/04 07:02:35;;;;;;;5.43;3.20;;;2.60;48.80;;;;;;5092943;28;20020;-75
2023/04/04 07:05:01;;;;;;;5.95;3.83;;;2.60;48.60;;;;;;5091133;28;20019;-75
2023/04/04 07:07:26;;;;;;;7.07;3.15;;;2.60;49.00;;;;;;5096714;28;20443;-76
2023/04/04 07:09:52;;;;;;;6.22;3.38;;;2.70;48.90;;;;;;5096338;28;20413;-77
2023/04/04 07:12:18;;;;;;;11.52;5.03;;;2.80;48.60;;;;;;5096399;28;20040;-74
2023/04/04 07:14:43;;;;;;;6.53;3.65;;;2.90;48.40;;;;;;5096474;28;20028;-73
2023/04/04 07:17:09;;;;;;;6.13;3.33;;;2.90;48.30;;;;;;5096343;28;20103;-75
2023/04/04 07:19:35;;;;;;;8.45;3.50;;;3.00;48.00;;;;;;5096765;28;20037;-74
2023/04/04 07:22:00;;;;;;;7.00;3.30;;;3.00;48.10;;;;;;5095111;28;20480;-74
2023/04/04 07:24:26;;;;;;;8.18;3.58;;;3.00;48.10;;;;;;5100406;28;20437;-76
2023/04/04 07:26:51;;;;;;;6.65;3.15;;;3.00;47.90;;;;;;5095746;28;20023;-75
2023/04/04 07:29:17;;;;;;;8.48;3.67;;;3.10;47.80;;;;;;5096137;28;20048;-75
2023/04/04 07:31:42;;;;;;;5.72;3.20;;;3.20;47.70;;;;;;5095733;28;20040;-75
2023/04/04 07:34:08;;;;;;;10.27;5.13;;;3.20;47.30;;;;;;5096137;28;20461;-75
2023/04/04 07:36:33;;;;;;;9.02;3.63;;;3.30;47.60;;;;;;5096385;28;20423;-74
2023/04/04 07:38:59;;;;;;;6.85;3.05;;;3.60;64.40;;;;;;5095632;28;20480;-74
2023/04/04 07:41:25;;;;;;;6.13;3.08;;;4.10;65.50;;;;;;5095908;28;20081;-73
2023/04/04 07:43:51;;;;;;;6.43;2.78;;;4.70;58.40;;;;;;5096035;28;20020;-74
2023/04/04 07:46:16;;;;;;;5.60;2.75;;;5.20;55.20;;;;;;5095755;28;20031;-76
2023/04/04 07:48:42;;;;;;;7.28;2.55;;;5.60;45.90;;;;;;5095958;28;20112;-74
2023/04/04 07:51:08;;;;;;;5.60;3.15;;;5.90;50.40;;;;;;5095804;28;20036;-73
2023/04/04 07:53:33;;;;;;;5.07;2.42;;;6.40;47.90;;;;;;5095795;28;20020;-74
2023/04/04 07:56:05;;;;;;;4.22;2.53;;;6.60;46.20;;;;;;5096059;28;20085;-73
2023/04/04 07:58:33;;;;;;;6.63;2.75;;;7.00;46.00;;;;;;5094745;28;20039;-73
2023/04/04 08:01:00;;;;;;;4.78;2.80;;;7.30;43.50;;;;;;5095697;28;20051;-73
2023/04/04 08:03:25;;;;;;;6.55;3.70;;;7.40;41.70;;;;;;5095429;28;20024;-73
2023/04/04 08:05:51;;;;;;;5.68;3.10;;;7.70;41.80;;;;;;5095798;28;20024;-74
2023/04/04 08:08:17;;;;;;;4.95;2.83;;;7.60;35.80;;;;;;5094201;28;20017;-73
2023/04/04 08:10:44;;;;;;;7.05;3.33;;;7.00;35.40;;;;;;5095309;28;20067;-74
2023/04/04 08:13:10;;;;;;;5.43;3.00;;;6.50;36.10;;;;;;5095137;28;20016;-74
2023/04/04 08:15:36;;;;;;;6.07;3.05;;;6.00;36.70;;;;;;5095338;28;20043;-74
2023/04/04 08:18:02;;;;;;;4.75;2.78;;;5.60;37.80;;;;;;5095125;28;20027;-74
2023/04/04 08:20:27;;;;;;;8.25;3.25;;;5.40;38.60;;;;;;5095321;28;20024;-74
2023/04/04 08:22:53;;;;;;;4.82;2.83;;;5.20;38.20;;;;;;5093909;28;20038;-74
2023/04/04 08:25:19;;;;;;;6.07;2.90;;;5.00;38.30;;;;;;5095078;28;20047;-74
2023/04/04 08:27:44;;;;;;;5.60;3.10;;;5.00;39.30;;;;;;5095318;28;20423;-74
2023/04/04 08:30:12;;;;;;;9.55;5.10;;;5.00;40.00;;;;;;5095538;28;20061;-74
2023/04/04 08:32:37;;;;;;;5.78;3.47;;;5.00;40.30;;;;;;5095219;28;20491;-74
2023/04/04 08:35:04;;;;;;;6.78;2.90;;;4.90;40.70;;;;;;5100520;28;20024;-74
2023/04/04 08:37:30;;;;;;;6.65;2.83;;;4.80;40.60;;;;;;5096092;28;20016;-75
2023/04/04 08:39:55;;;;;;;5.80;3.30;;;4.80;39.80;;;;;;5095731;28;20044;-74
2023/04/04 08:42:23;;;;;;;7.82;3.03;;;4.70;40.90;;;;;;5095059;28;20024;-74
2023/04/04 08:44:52;;;;;;;6.75;3.05;;;4.80;41.40;;;;;;5095050;28;20498;-74
2023/04/04 08:47:20;;;;;;;7.78;2.67;;;4.90;41.00;;;;;;5094790;28;20028;-74
2023/04/04 08:49:48;;;;;;;5.22;2.85;;;4.80;40.60;;;;;;5094687;28;20116;-74
2023/04/04 08:52:18;;;;;;;6.03;2.92;;;4.60;38.50;;;;;;5094378;28;20032;-74
2023/04/04 08:54:45;;;;;;;3.67;2.60;;;4.60;39.20;;;;;;5094841;28;20031;-74
2023/04/04 08:57:11;;;;;;;7.53;2.88;;;4.70;40.00;;;;;;5094554;28;20021;-74
2023/04/04 08:59:37;;;;;;;9.73;3.15;;;4.80;38.80;;;;;;5094486;28;20043;-75
2023/04/04 09:02:16;;;;;;;5.72;2.65;;;4.80;38.50;;;;;;5094389;28;20099;-74
2023/04/04 09:04:43;;;;;;;4.78;2.83;;;4.80;38.70;;;;;;5094144;28;20032;-74
2023/04/04 09:07:09;;;;;;;4.20;2.72;;;5.00;40.50;;;;;;5094506;28;20430;-75
2023/04/04 09:09:36;;;;;;;4.30;2.40;;;5.20;40.90;;;;;;5094120;28;20051;-74
2023/04/04 09:12:03;;;;;;;6.28;3.20;;;5.50;39.00;;;;;;5093972;28;20036;-73
2023/04/04 09:14:29;;;;;;;9.38;3.85;;;5.80;42.60;;;;;;5093903;28;20024;-74
2023/04/04 09:16:55;;;;;;;7.28;4.05;;;6.30;38.20;;;;;;5094400;28;20385;-73
2023/04/04 09:19:21;;;;;;;5.32;2.97;;;6.40;36.40;;;;;;5094157;28;20027;-72
2023/04/04 09:21:48;;;;;;;3.80;2.53;;;6.50;35.80;;;;;;5094025;28;20468;-72
2023/04/04 09:24:14;;;;;;;3.95;2.53;;;6.50;36.00;;;;;;5093918;28;20028;-73
2023/04/04 09:26:48;;;;;;;4.97;2.72;;;6.50;36.00;;;;;;5093260;28;20028;-73
2023/04/04 09:29:17;;;;;;;5.75;2.70;;;6.70;35.80;;;;;;5093695;28;20099;-74
2023/04/04 09:31:45;;;;;;;4.60;2.33;;;6.70;35.80;;;;;;5092432;28;20067;-74
2023/04/04 09:34:13;;;;;;;4.47;2.70;;;6.80;35.30;;;;;;5093790;28;20028;-72
2023/04/04 09:36:39;;;;;;;5.43;2.97;;;6.80;34.30;;;;;;5093923;28;20028;-73
2023/04/04 09:39:06;;;;;;;5.55;2.92;;;6.80;34.10;;;;;;5093556;28;20032;-73
2023/04/04 09:41:31;;;;;;;4.53;2.30;;;6.90;35.30;;;;;;5093683;28;20032;-73
2023/04/04 09:43:57;;;;;;;4.13;2.45;;;7.10;35.50;;;;;;5093534;28;20096;-73
2023/04/04 09:46:24;;;;;;;5.00;2.80;;;7.20;35.20;;;;;;5093521;28;20028;-73
2023/04/04 09:48:50;;;;;;;6.25;3.33;;;7.40;34.30;;;;;;5093482;28;20051;-73
2023/04/04 09:51:16;;;;;;;4.82;2.60;;;7.60;34.40;;;;;;5093339;28;20554;-73
2023/04/04 09:53:46;;;;;;;11.45;5.47;;;7.70;34.20;;;;;;5092002;28;20028;-73
2023/04/04 09:56:12;;;;;;;5.32;2.90;;;7.90;34.30;;;;;;5093296;28;20092;-74
2023/04/04 09:58:37;;;;;;;5.72;3.15;;;8.10;34.00;;;;;;5093212;28;20024;-74
2023/04/04 10:01:08;;;;;;;4.88;2.53;;;8.20;35.00;;;;;;5093030;28;20487;-73
2023/04/04 10:03:36;;;;;;;4.05;2.55;;;8.40;32.30;;;;;;5093329;28;20177;-73
2023/04/04 10:06:04;;;;;;;3.75;2.83;;;8.20;31.50;;;;;;5093547;28;20024;-73
2023/04/04 10:08:31;;;;;;;4.75;2.65;;;8.00;30.90;;;;;;5093183;28;20473;-75
2023/04/04 10:10:57;;;;;;;4.43;2.25;;;8.00;31.50;;;;;;5093159;28;20043;-73
2023/04/04 10:13:25;;;;;;;4.13;2.35;;;8.10;32.40;;;;;;5092950;28;20087;-73
2023/04/04 10:15:55;;;;;;;4.22;2.90;;;8.30;33.70;;;;;;5092785;28;20028;-73
2023/04/04 10:18:26;;;;;;;6.45;3.20;;;8.60;33.10;;;;;;5092659;28;20016;-72
2023/04/04 10:20:53;;;;;;;3.60;2.50;;;8.90;31.70;;;;;;5092875;28;20508;-73
2023/04/04 10:23:25;;;;;;;4.15;2.70;;;9.10;30.70;;;;;;5092696;28;20028;-73
2023/04/04 10:25:51;;;;;;;4.65;2.58;;;9.10;29.80;;;;;;5092381;28;20065;-73
2023/04/04 10:28:17;;;;;;;5.50;3.38;;;9.20;30.30;;;;;;5092808;28;20095;-74
2023/04/04 10:30:56;;;;;;;3.85;2.53;;;9.40;30.10;;;;;;5092319;28;20510;-73
2023/04/04 10:33:31;;;;;;;6.43;2.85;;;9.30;30.10;;;;;;5092755;28;20032;-74
2023/04/04 10:36:02;;;;;;;3.00;2.30;;;9.20;29.50;;;;;;5092761;28;20111;-74
2023/04/04 10:38:34;;;;;;;7.35;2.88;;;9.40;29.20;;;;;;5092786;28;20031;-73
2023/04/04 10:41:01;;;;;;;4.60;2.15;;;9.60;29.40;;;;;;5090985;28;20515;-74
2023/04/04 10:43:31;;;;;;;4.38;2.50;;;9.70;29.20;;;;;;5092242;28;20412;-73
2023/04/04 10:46:05;;;;;;;6.13;2.83;;;9.90;28.80;;;;;;5092636;28;20028;-73
2023/04/04 10:48:31;;;;;;;4.57;2.72;;;9.90;27.80;;;;;;5092226;28;20021;-73
2023/04/04 10:50:58;;;;;;;6.75;2.92;;;10.00;27.30;;;;;;5092129;28;20414;-78
2023/04/04 10:53:24;;;;;;;4.30;2.50;;;10.00;27.60;;;;;;5092461;28;20031;-73
2023/04/04 10:55:51;;;;;;;5.13;2.40;;;10.00;27.40;;;;;;5092190;28;20027;-74
2023/04/04 10:58:16;;;;;;;4.28;2.67;;;10.10;27.80;;;;;;5090485;28;20023;-73
2023/04/04 11:00:54;;;;;;;4.05;2.47;;;10.30;28.10;;;;;;5092073;28;20024;-74
2023/04/04 11:03:20;;;;;;;3.30;2.35;;;10.50;27.60;;;;;;5092488;28;20025;-74
2023/04/04 11:05:46;;;;;;;4.53;2.53;;;10.70;26.60;;;;;;5092263;28;20415;-74
2023/04/04 11:08:16;;;;;;;4.28;2.55;;;10.80;25.40;;;;;;5090923;28;20464;-74
2023/04/04 11:10:48;;;;;;;4.00;2.78;;;10.90;24.90;;;;;;5090829;28;20036;-73
2023/04/04 11:13:17;;;;;;;3.85;2.65;;;10.90;23.70;;;;;;5091796;28;20122;-73
2023/04/04 11:15:58;;;;;;;6.78;2.58;;;11.00;25.30;;;;;;5092522;28;20024;-74
2023/04/04 11:18:47;;;;;;;5.95;3.70;;;11.00;24.60;;;;;;5092142;28;20030;-73
2023/04/04 11:21:17;;;;;;;3.80;2.78;;;11.20;25.40;;;;;;5084029;28;20472;-73
2023/04/04 11:23:48;;;;;;;5.93;2.60;;;11.40;26.20;;;;;;5092314;28;20032;-73
2023/04/04 11:26:34;;;;;;;4.40;2.65;;;11.70;24.80;;;;;;5092392;28;20091;-73
2023/04/04 11:29:00;;;;;;;;;;;11.80;24.60;;;;;;5092495;28;20020;-73
2023/04/04 11:31:39;;;;;;;3.72;2.50;;;11.90;23.70;;;;;;5091861;28;19912;-73
2023/04/04 11:34:09;;;;;;;5.07;3.00;;;11.90;23.60;;;;;;5092000;28;20453;-73
2023/04/04 11:36:43;;;;;;;5.40;3.08;;;11.70;22.70;;;;;;5092290;28;20372;-74
2023/04/04 11:39:26;;;;;;;5.68;2.72;;;11.80;23.60;;;;;;5091689;28;20088;-73
2023/04/04 11:42:10;;;;;;;5.00;2.72;;;11.90;24.90;;;;;;5090570;28;20032;-72
2023/04/04 11:44:40;;;;;;;6.38;3.17;;;12.10;23.60;;;;;;5091746;28;20056;-72
2023/04/04 11:47:07;;;;;;;5.57;2.88;;;12.10;22.90;;;;;;5091462;28;20456;-73
2023/04/04 11:49:36;;;;;;;3.53;2.60;;;12.10;23.50;;;;;;5094020;28;20366;-72
2023/04/04 11:52:07;;;;;;;3.15;2.40;;;12.30;22.90;;;;;;5095663;28;20397;-73
2023/04/04 11:54:33;;;;;;;4.68;2.80;;;12.50;22.00;;;;;;5095561;28;20095;-73
2023/04/04 11:57:00;;;;;;;4.93;2.85;;;12.70;22.80;;;;;;5095777;28;20024;-74
2023/04/04 11:59:26;;;;;;;4.53;2.10;;;12.80;22.90;;;;;;5095712;28;20369;-74
2023/04/04 12:01:53;;;;;;;4.70;2.47;;;12.80;20.80;;;;;;5095600;28;20019;-74
2023/04/04 12:04:20;;;;;;;4.47;2.35;;;12.80;20.60;;;;;;5095627;28;20373;-73
2023/04/04 12:06:51;;;;;;;5.70;2.08;;;12.50;19.90;;;;;;5095589;28;20025;-74
2023/04/04 12:09:19;;;;;;;5.25;2.00;;;12.00;20.50;;;;;;5094252;28;20028;-74
2023/04/04 12:11:45;;;;;;;6.03;2.63;;;12.30;22.10;;;;;;5095167;28;20035;-73
2023/04/04 12:14:22;;;;;;;7.10;2.63;;;12.70;22.70;;;;;;5095300;28;20024;-73
2023/04/04 12:16:49;;;;;;;3.88;2.20;;;12.90;21.60;;;;;;5094030;28;20028;-74
2023/04/04 12:19:17;;;;;;;3.53;2.10;;;12.90;21.80;;;;;;5095208;28;20020;-74
2023/04/04 12:21:43;;;;;;;6.95;3.50;;;12.80;21.10;;;;;;5095090;28;20027;-75
2023/04/04 12:24:09;;;;;;;5.50;2.70;;;12.80;20.40;;;;;;5095229;28;20453;-73
2023/04/04 12:26:38;;;;;;;6.05;2.60;;;12.90;20.60;;;;;;5095134;28;20514;-74
2023/04/04 12:29:04;;;;;;;4.43;2.00;;;12.90;20.00;;;;;;5095013;28;20484;-74
2023/04/04 12:31:31;;;;;;;4.13;2.58;;;13.10;21.00;;;;;;5094903;28;20039;-75
2023/04/04 12:33:57;;;;;;;4.30;2.65;;;13.30;20.60;;;;;;5094810;28;20019;-74
2023/04/04 12:36:29;;;;;;;6.43;2.30;;;13.20;19.70;;;;;;5095092;28;20054;-74
2023/04/04 12:39:01;;;;;;;4.72;2.15;;;13.30;20.30;;;;;;5093404;28;20503;-74
2023/04/04 12:41:27;;;;;;;5.25;2.10;;;13.30;20.80;;;;;;5095008;28;20047;-74
2023/04/04 12:44:01;;;;;;;3.30;1.92;;;13.50;20.50;;;;;;5094873;28;20035;-74
2023/04/04 12:46:27;;;;;;;4.55;2.45;;;13.50;19.40;;;;;;5094810;28;20096;-73
2023/04/04 12:48:53;;;;;;;3.90;2.65;;;13.60;19.90;;;;;;5093277;28;20059;-73
2023/04/04 12:51:19;;;;;;;5.68;2.53;;;13.70;20.70;;;;;;5094533;28;20076;-73
2023/04/04 12:53:52;;;;;;;4.43;2.80;;;13.90;22.10;;;;;;5094667;28;20054;-74